createdAt,value
2018-02-25T00:00:05.445Z,101967.34
2018-02-25T00:02:32.098Z,101975.78
2018-02-25T00:04:58.557Z,101977.56
2018-02-25T00:07:25.005Z,101978.47
2018-02-25T00:09:51.453Z,101982.44
2018-02-25T00:12:17.877Z,101980.28
2018-02-25T00:14:45.085Z,101987.36
2018-02-25T00:17:11.522Z,101991.34
2018-02-25T00:19:37.952Z,101996.25
2018-02-25T00:22:04.400Z,101992.30
2018-02-25T00:24:30.848Z,101994.05
2018-02-25T00:26:57.296Z,101998.03
2018-02-25T00:29:23.728Z,101998.93
2018-02-25T00:31:50.164Z,102000.32
2018-02-25T00:34:16.590Z,101996.77
2018-02-25T00:36:43.785Z,102004.73
2018-02-25T00:39:10.228Z,101995.50
2018-02-25T00:41:36.672Z,101999.91
2018-02-25T00:44:03.111Z,102002.60
2018-02-25T00:46:29.548Z,102005.25
2018-02-25T00:48:56.777Z,102015.88
2018-02-25T00:51:23.208Z,102008.83
2018-02-25T00:53:49.804Z,102008.83
2018-02-25T00:56:16.996Z,102011.52
2018-02-25T00:58:43.454Z,102006.20
2018-02-25T01:01:09.965Z,102010.19
2018-02-25T01:03:36.452Z,102010.66
2018-02-25T01:06:02.894Z,102008.92
2018-02-25T01:08:29.346Z,102015.56
2018-02-25T01:10:55.793Z,102015.98
2018-02-25T01:13:22.237Z,102014.70
2018-02-25T01:15:48.670Z,102021.77
2018-02-25T01:18:15.110Z,102015.16
2018-02-25T01:20:41.540Z,102017.81
2018-02-25T01:23:07.966Z,102012.96
2018-02-25T01:25:35.181Z,102015.19
2018-02-25T01:28:01.618Z,102012.53
2018-02-25T01:30:28.062Z,102012.96
2018-02-25T01:32:54.722Z,102010.34
2018-02-25T01:35:21.146Z,102017.38
2018-02-25T01:37:47.582Z,102028.92
2018-02-25T01:40:14.033Z,102020.52
2018-02-25T01:42:40.480Z,102024.50
2018-02-25T01:45:06.910Z,102022.31
2018-02-25T01:47:33.345Z,102012.13
2018-02-25T01:50:00.552Z,102017.49
2018-02-25T01:52:26.981Z,102019.69
2018-02-25T01:54:53.405Z,102019.22
2018-02-25T01:57:20.608Z,102022.77
2018-02-25T01:59:47.052Z,102023.20
2018-02-25T02:02:13.500Z,102018.80
2018-02-25T02:04:39.926Z,102025.46
2018-02-25T02:07:06.369Z,102021.94
2018-02-25T02:09:32.811Z,102024.16
2018-02-25T02:11:59.234Z,102024.16
2018-02-25T02:14:26.445Z,102020.67
2018-02-25T02:16:52.888Z,102025.98
2018-02-25T02:19:19.336Z,102018.45
2018-02-25T02:21:45.780Z,102018.45
2018-02-25T02:24:12.235Z,102019.77
2018-02-25T02:26:38.668Z,102021.56
2018-02-25T02:29:05.144Z,102027.30
2018-02-25T02:31:31.584Z,102018.02
2018-02-25T02:33:58.054Z,102018.47
2018-02-25T02:36:25.247Z,102021.99
2018-02-25T02:38:51.785Z,102017.14
2018-02-25T02:41:18.184Z,102021.59
2018-02-25T02:43:44.657Z,102025.56
2018-02-25T02:46:11.089Z,102018.07
2018-02-25T02:48:37.552Z,102026.50
2018-02-25T02:51:04.765Z,102027.39
2018-02-25T02:53:31.237Z,102021.19
2018-02-25T02:55:57.685Z,102021.65
2018-02-25T02:58:24.110Z,102024.73
2018-02-25T03:00:50.538Z,102027.84
2018-02-25T03:03:16.966Z,102029.61
2018-02-25T03:05:43.414Z,102022.54
2018-02-25T03:08:09.838Z,102027.41
2018-02-25T03:10:37.042Z,102030.07
2018-02-25T03:13:03.479Z,102038.93
2018-02-25T03:15:29.902Z,102031.45
2018-02-25T03:17:57.141Z,102034.55
2018-02-25T03:20:23.572Z,102040.28
2018-02-25T03:22:50.017Z,102035.88
2018-02-25T03:25:16.461Z,102045.59
2018-02-25T03:27:42.885Z,102042.50
2018-02-25T03:30:09.321Z,102049.60
2018-02-25T03:32:35.772Z,102051.80
2018-02-25T03:35:02.201Z,102055.34
2018-02-25T03:37:28.625Z,102047.88
2018-02-25T03:39:55.827Z,102056.70
2018-02-25T03:42:22.264Z,102057.16
2018-02-25T03:44:48.703Z,102061.14
2018-02-25T03:47:15.142Z,102066.02
2018-02-25T03:49:42.354Z,102069.56
2018-02-25T03:52:08.781Z,102077.06
2018-02-25T03:54:35.205Z,102082.38
2018-02-25T03:57:01.655Z,102085.48
2018-02-25T03:59:28.091Z,102089.47
2018-02-25T04:01:54.533Z,102095.67
2018-02-25T04:04:20.969Z,102095.23
2018-02-25T04:06:48.163Z,102096.16
2018-02-25T04:09:14.636Z,102097.92
2018-02-25T04:11:41.060Z,102106.31
2018-02-25T04:14:07.520Z,102101.47
2018-02-25T04:16:33.942Z,102105.88
2018-02-25T04:19:00.414Z,102110.30
2018-02-25T04:21:26.888Z,102111.65
2018-02-25T04:23:53.341Z,102104.98
2018-02-25T04:26:20.557Z,102111.22
2018-02-25T04:28:47.011Z,102107.27
2018-02-25T04:31:13.446Z,102111.65
2018-02-25T04:33:39.907Z,102114.77
2018-02-25T04:36:06.333Z,102116.55
2018-02-25T04:38:32.800Z,102113.00
2018-02-25T04:40:59.240Z,102115.22
2018-02-25T04:43:25.688Z,102118.31
2018-02-25T04:45:52.133Z,102121.42
2018-02-25T04:48:18.575Z,102121.86
2018-02-25T04:50:45.008Z,102130.73
2018-02-25T04:53:11.448Z,102134.69
2018-02-25T04:55:37.872Z,102135.16
2018-02-25T04:58:04.307Z,102137.34
2018-02-25T05:00:31.511Z,102136.91
2018-02-25T05:02:57.933Z,102135.59
2018-02-25T05:05:24.376Z,102136.94
2018-02-25T05:07:51.574Z,102139.56
2018-02-25T05:10:18.020Z,102142.71
2018-02-25T05:12:44.449Z,102132.55
2018-02-25T05:15:10.887Z,102134.28
2018-02-25T05:17:37.360Z,102137.40
2018-02-25T05:20:03.801Z,102142.24
2018-02-25T05:22:30.252Z,102140.06
2018-02-25T05:24:56.678Z,102141.81
2018-02-25T05:27:23.105Z,102134.75
2018-02-25T05:29:49.554Z,102139.16
2018-02-25T05:32:16.001Z,102137.83
2018-02-25T05:34:42.448Z,102130.77
2018-02-25T05:37:08.874Z,102135.20
2018-02-25T05:39:36.079Z,102129.03
2018-02-25T05:42:02.507Z,102132.58
2018-02-25T05:44:28.939Z,102132.58
2018-02-25T05:46:55.365Z,102131.25
2018-02-25T05:49:22.567Z,102126.84
2018-02-25T05:51:49.008Z,102130.36
2018-02-25T05:54:15.457Z,102129.92
2018-02-25T05:56:41.904Z,102133.01
2018-02-25T05:59:08.376Z,102136.98
2018-02-25T06:01:34.802Z,102137.02
2018-02-25T06:04:01.235Z,102140.56
2018-02-25T06:06:27.718Z,102137.91
2018-02-25T06:08:54.151Z,102137.91
2018-02-25T06:11:20.597Z,102138.37
2018-02-25T06:13:47.050Z,102137.94
2018-02-25T06:16:13.486Z,102145.00
2018-02-25T06:18:39.940Z,102139.69
2018-02-25T06:21:06.388Z,102136.61
2018-02-25T06:23:32.837Z,102141.48
2018-02-25T06:25:59.270Z,102146.33
2018-02-25T06:28:25.720Z,102145.89
2018-02-25T06:30:52.150Z,102154.75
2018-02-25T06:33:18.577Z,102152.55
2018-02-25T06:35:45.007Z,102154.34
2018-02-25T06:38:11.437Z,102156.11
2018-02-25T06:40:38.648Z,102155.20
2018-02-25T06:43:05.090Z,102160.08
2018-02-25T06:45:31.517Z,102162.77
2018-02-25T06:47:58.050Z,102166.28
2018-02-25T06:50:24.644Z,102172.48
2018-02-25T06:52:51.070Z,102177.80
2018-02-25T06:55:17.494Z,102171.63
2018-02-25T06:57:44.685Z,102180.91
2018-02-25T07:00:11.120Z,102179.12
2018-02-25T07:02:37.550Z,102180.91
2018-02-25T07:05:04.020Z,102185.31
2018-02-25T07:07:30.463Z,102184.91
2018-02-25T07:09:56.903Z,102195.52
2018-02-25T07:12:23.338Z,102194.20
2018-02-25T07:14:49.767Z,102195.95
2018-02-25T07:17:17.064Z,102195.95
2018-02-25T07:19:43.503Z,102193.33
2018-02-25T07:22:09.940Z,102202.16
2018-02-25T07:24:36.411Z,102196.42
2018-02-25T07:27:02.837Z,102207.49
2018-02-25T07:29:29.265Z,102203.95
2018-02-25T07:31:56.457Z,102199.50
2018-02-25T07:34:22.892Z,102200.85
2018-02-25T07:36:49.344Z,102201.72
2018-02-25T07:39:15.792Z,102202.18
2018-02-25T07:41:42.231Z,102201.28
2018-02-25T07:44:08.672Z,102203.50
2018-02-25T07:46:35.113Z,102206.62
2018-02-25T07:49:01.552Z,102208.38
2018-02-25T07:51:27.998Z,102210.59
2018-02-25T07:53:54.435Z,102211.06
2018-02-25T07:56:21.679Z,102211.92
2018-02-25T07:58:48.114Z,102206.19
2018-02-25T08:01:14.556Z,102200.88
2018-02-25T08:03:41.033Z,102205.75
2018-02-25T08:06:08.252Z,102206.64
2018-02-25T08:08:34.720Z,102209.73
2018-02-25T08:11:02.653Z,102209.73
2018-02-25T08:13:29.077Z,102212.84
2018-02-25T08:15:55.511Z,102210.19
2018-02-25T08:18:22.732Z,102214.60
2018-02-25T08:20:49.158Z,102215.95
2018-02-25T08:23:15.604Z,102208.40
2018-02-25T08:25:42.044Z,102208.40
2018-02-25T08:28:08.496Z,102215.06
2018-02-25T08:30:34.940Z,102208.89
2018-02-25T08:33:01.385Z,102208.86
2018-02-25T08:35:27.864Z,102212.87
2018-02-25T08:37:54.331Z,102213.30
2018-02-25T08:40:20.776Z,102215.09
2018-02-25T08:42:47.986Z,102211.97
2018-02-25T08:45:14.429Z,102217.28
2018-02-25T08:47:40.871Z,102212.89
2018-02-25T08:50:07.328Z,102204.03
2018-02-25T08:52:33.771Z,102209.80
2018-02-25T08:55:00.196Z,102215.08
2018-02-25T08:57:26.653Z,102219.96
2018-02-25T08:59:53.113Z,102221.72
2018-02-25T09:02:19.643Z,102226.16
2018-02-25T09:04:46.206Z,102222.61
2018-02-25T09:07:12.639Z,102217.30
2018-02-25T09:09:39.118Z,102222.17
2018-02-25T09:12:05.559Z,102221.33
2018-02-25T09:14:32.043Z,102220.84
2018-02-25T09:16:59.259Z,102223.50
2018-02-25T09:19:25.734Z,102219.09
2018-02-25T09:21:52.162Z,102222.64
2018-02-25T09:24:18.619Z,102223.96
2018-02-25T09:26:45.064Z,102220.83
2018-02-25T09:29:12.291Z,102223.48
2018-02-25T09:31:38.736Z,102216.87
2018-02-25T09:34:05.209Z,102211.99
2018-02-25T09:36:31.633Z,102209.34
2018-02-25T09:38:58.082Z,102213.80
2018-02-25T09:41:24.571Z,102213.34
2018-02-25T09:43:50.998Z,102208.47
2018-02-25T09:46:17.435Z,102215.56
2018-02-25T09:48:43.897Z,102212.05
2018-02-25T09:51:10.329Z,102212.48
2018-02-25T09:53:36.781Z,102205.84
2018-02-25T09:56:03.224Z,102207.63
2018-02-25T09:58:29.667Z,102204.98
2018-02-25T10:00:56.093Z,102208.49
2018-02-25T10:03:22.545Z,102208.52
2018-02-25T10:05:48.989Z,102208.55
2018-02-25T10:08:15.419Z,102208.98
2018-02-25T10:10:41.864Z,102210.77
2018-02-25T10:13:08.308Z,102209.87
2018-02-25T10:15:34.747Z,102212.07
2018-02-25T10:18:01.196Z,102212.96
2018-02-25T10:20:27.659Z,102205.89
2018-02-25T10:22:54.100Z,102206.79
2018-02-25T10:25:20.527Z,102201.48
2018-02-25T10:27:46.955Z,102201.02
2018-02-25T10:30:14.145Z,102197.06
2018-02-25T10:32:40.588Z,102203.23
2018-02-25T10:35:07.036Z,102199.74
2018-02-25T10:37:33.480Z,102198.82
2018-02-25T10:39:59.920Z,102197.95
2018-02-25T10:42:26.354Z,102196.63
2018-02-25T10:44:53.572Z,102195.77
2018-02-25T10:47:20.011Z,102192.67
2018-02-25T10:49:46.444Z,102187.34
2018-02-25T10:52:12.869Z,102187.34
2018-02-25T10:54:39.328Z,102185.58
2018-02-25T10:57:05.754Z,102182.06
2018-02-25T10:59:32.201Z,102180.73
2018-02-25T11:01:58.639Z,102178.98
2018-02-25T11:04:25.093Z,102183.84
2018-02-25T11:06:51.541Z,102176.31
2018-02-25T11:09:17.989Z,102169.26
2018-02-25T11:11:44.430Z,102161.30
2018-02-25T11:14:10.856Z,102159.07
2018-02-25T11:16:38.066Z,102159.97
2018-02-25T11:19:04.517Z,102159.53
2018-02-25T11:21:30.942Z,102151.11
2018-02-25T11:23:57.389Z,102146.70
2018-02-25T11:26:23.819Z,102141.83
2018-02-25T11:28:50.291Z,102137.84
2018-02-25T11:31:16.776Z,102138.31
2018-02-25T11:33:43.198Z,102135.66
2018-02-25T11:36:09.639Z,102135.66
2018-02-25T11:38:36.096Z,102137.91
2018-02-25T11:41:02.519Z,102132.57
2018-02-25T11:43:28.951Z,102125.94
2018-02-25T11:45:55.382Z,102129.02
2018-02-25T11:48:21.823Z,102114.45
2018-02-25T11:50:48.258Z,102119.77
2018-02-25T11:53:15.451Z,102114.48
2018-02-25T11:55:41.892Z,102112.27
2018-02-25T11:58:08.368Z,102108.70
2018-02-25T12:00:34.813Z,102106.96
2018-02-25T12:03:01.248Z,102102.09
2018-02-25T12:05:27.690Z,102103.41
2018-02-25T12:07:54.118Z,102102.55
2018-02-25T12:10:20.591Z,102098.11
2018-02-25T12:12:47.035Z,102101.66
2018-02-25T12:15:13.481Z,102096.80
2018-02-25T12:17:41.459Z,102093.70
2018-02-25T12:20:07.908Z,102096.34
2018-02-25T12:22:34.342Z,102095.91
2018-02-25T12:25:00.817Z,102092.37
2018-02-25T12:27:27.282Z,102094.59
2018-02-25T12:29:53.756Z,102101.22
2018-02-25T12:32:20.200Z,102079.99
2018-02-25T12:34:46.676Z,102087.09
2018-02-25T12:37:13.098Z,102089.30
2018-02-25T12:39:39.556Z,102081.34
2018-02-25T12:42:05.995Z,102076.48
2018-02-25T12:44:32.473Z,102069.84
2018-02-25T12:46:58.908Z,102077.83
2018-02-25T12:49:25.358Z,102072.53
2018-02-25T12:51:51.809Z,102071.63
2018-02-25T12:54:18.277Z,102065.89
2018-02-25T12:56:44.726Z,102067.19
2018-02-25T12:59:11.182Z,102063.67
2018-02-25T13:01:37.628Z,102061.45
2018-02-25T13:04:04.097Z,102065.00
2018-02-25T13:06:30.529Z,102065.00
2018-02-25T13:08:57.765Z,102059.27
2018-02-25T13:11:24.214Z,102050.44
2018-02-25T13:13:50.666Z,102052.20
2018-02-25T13:16:17.108Z,102043.77
2018-02-25T13:18:43.558Z,102048.67
2018-02-25T13:21:09.987Z,102043.37
2018-02-25T13:23:36.429Z,102044.67
2018-02-25T13:26:02.881Z,102032.30
2018-02-25T13:28:29.323Z,102029.18
2018-02-25T13:30:55.765Z,102027.86
2018-02-25T13:33:22.213Z,102030.43
2018-02-25T13:39:45.821Z,102026.38
2018-02-25T13:42:13.276Z,102030.83
2018-02-25T13:44:39.814Z,102026.52
2018-02-25T13:47:06.264Z,102038.17
2018-02-25T13:49:32.721Z,102030.39
2018-02-25T13:51:59.175Z,102031.59
2018-02-25T13:54:25.636Z,102035.89
2018-02-25T13:56:52.079Z,102026.46
2018-02-25T13:59:18.610Z,102025.27
2018-02-25T14:01:45.047Z,102027.09
2018-02-25T14:04:11.508Z,102035.08
2018-02-25T14:06:37.963Z,102022.69
2018-02-25T14:09:04.414Z,102023.08
2018-02-25T14:11:30.854Z,102020.91
2018-02-25T14:13:57.289Z,102020.77
2018-02-25T14:16:23.734Z,102023.43
2018-02-25T14:18:50.199Z,102017.36
2018-02-25T14:21:16.645Z,102022.73
2018-02-25T14:23:43.093Z,102017.36
2018-02-25T14:26:09.599Z,102011.15
2018-02-25T14:28:36.347Z,102015.97
2018-02-25T14:31:02.985Z,102013.70
2018-02-25T14:33:29.571Z,102016.91
2018-02-25T14:35:56.180Z,102021.70
2018-02-25T14:38:22.653Z,102015.01
2018-02-25T14:40:49.087Z,102017.63
2018-02-25T14:43:15.518Z,102011.34
2018-02-25T14:45:42.736Z,102008.16
2018-02-25T14:48:09.348Z,102014.80
2018-02-25T14:50:35.782Z,102010.02
2018-02-25T14:53:02.222Z,102013.17
2018-02-25T14:55:28.889Z,102010.43
2018-02-25T14:57:55.510Z,102011.91
2018-02-25T15:00:21.990Z,102004.84
2018-02-25T15:02:48.435Z,102009.30
2018-02-25T15:05:15.167Z,102009.78
2018-02-25T15:07:41.769Z,102005.92
2018-02-25T15:10:08.436Z,102005.51
2018-02-25T15:12:34.987Z,102010.72
2018-02-25T15:15:01.517Z,102008.43
2018-02-25T15:17:28.109Z,102005.28
2018-02-25T15:19:54.629Z,102009.42
2018-02-25T15:22:21.283Z,102002.91
2018-02-25T15:24:47.861Z,101999.52
2018-02-25T15:27:14.332Z,102001.33
2018-02-25T15:29:40.876Z,101996.95
2018-02-25T15:32:07.416Z,101998.81
2018-02-25T15:34:33.905Z,102001.48
2018-02-25T15:37:00.335Z,102001.05
2018-02-25T15:39:26.883Z,102005.98
2018-02-25T15:41:53.325Z,102006.06
2018-02-25T15:44:19.778Z,102003.02
2018-02-25T15:46:46.209Z,101993.32
2018-02-25T15:49:12.676Z,101998.12
2018-02-25T15:51:39.119Z,102000.08
2018-02-25T15:54:05.587Z,101995.16
2018-02-25T15:56:32.032Z,101999.53
2018-02-25T15:58:59.249Z,102005.64
2018-02-25T16:01:25.696Z,101999.05
2018-02-25T16:03:52.157Z,101999.33
2018-02-25T16:06:18.596Z,102007.12
2018-02-25T16:08:45.056Z,102001.68
2018-02-25T16:11:11.500Z,102008.70
2018-02-25T16:13:37.953Z,102010.42
2018-02-25T16:16:04.381Z,102002.56
2018-02-25T16:18:30.822Z,102006.58
2018-02-25T16:20:57.269Z,102007.94
2018-02-25T16:23:23.706Z,102011.93
2018-02-25T16:25:50.137Z,102017.76
2018-02-25T16:28:16.589Z,102018.28
2018-02-25T16:30:43.036Z,102008.52
2018-02-25T16:33:09.465Z,102014.19
2018-02-25T16:35:35.901Z,102011.55
2018-02-25T16:38:03.094Z,102016.91
2018-02-25T16:40:29.542Z,102013.33
2018-02-25T16:42:55.979Z,102011.59
2018-02-25T16:45:22.407Z,102019.08
2018-02-25T16:47:48.870Z,102016.30
2018-02-25T16:50:15.305Z,102011.52
2018-02-25T16:52:41.762Z,102022.58
2018-02-25T16:55:08.311Z,102012.37
2018-02-25T16:57:34.758Z,102011.50
2018-02-25T17:00:01.313Z,102019.06
2018-02-25T17:02:27.750Z,102016.44
2018-02-25T17:04:54.184Z,102019.52
2018-02-25T17:07:20.655Z,102022.73
2018-02-25T17:09:47.157Z,102023.16
2018-02-25T17:12:14.358Z,102032.48
2018-02-25T17:14:40.796Z,102030.72
2018-02-25T17:17:07.226Z,102032.11
2018-02-25T17:19:33.676Z,102037.50
2018-02-25T17:22:00.120Z,102040.94
2018-02-25T17:24:26.572Z,102038.34
2018-02-25T17:26:53.021Z,102043.66
2018-02-25T17:29:19.478Z,102041.35
2018-02-25T17:31:45.919Z,102037.46
2018-02-25T17:34:12.437Z,102038.64
2018-02-25T17:36:39.643Z,102044.33
2018-02-25T17:39:06.102Z,102042.88
2018-02-25T17:41:32.538Z,102048.61
2018-02-25T17:43:58.996Z,102046.82
2018-02-25T17:46:25.473Z,102049.02
2018-02-25T17:48:52.780Z,102053.41
2018-02-25T17:51:19.228Z,102056.49
2018-02-25T17:53:45.848Z,102062.66
2018-02-25T17:56:12.314Z,102055.58
2018-02-25T17:58:38.763Z,102059.98
2018-02-25T18:01:05.259Z,102059.47
2018-02-25T18:03:32.480Z,102063.92
2018-02-25T18:05:58.925Z,102063.08
2018-02-25T18:08:25.355Z,102059.94
2018-02-25T18:10:51.796Z,102060.80
2018-02-25T18:13:18.246Z,102059.91
2018-02-25T18:15:44.688Z,102069.19
2018-02-25T18:18:11.163Z,102068.30
2018-02-25T18:20:37.644Z,102063.45
2018-02-25T18:23:04.095Z,102069.66
2018-02-25T18:25:31.323Z,102064.33
2018-02-25T18:27:57.910Z,102064.75
2018-02-25T18:30:25.152Z,102067.89
2018-02-25T18:32:51.593Z,102076.26
2018-02-25T18:35:18.106Z,102070.06
2018-02-25T18:37:44.536Z,102073.15
2018-02-25T18:40:11.018Z,102070.04
2018-02-25T18:42:37.465Z,102070.04
2018-02-25T18:45:03.934Z,102077.53
2018-02-25T18:47:30.380Z,102080.59
2018-02-25T18:49:56.851Z,102085.44
2018-02-25T18:52:24.044Z,102082.38
2018-02-25T18:54:50.506Z,102081.92
2018-02-25T18:57:16.948Z,102085.47
2018-02-25T18:59:43.422Z,102087.66
2018-02-25T19:02:09.915Z,102090.77
2018-02-25T19:04:36.393Z,102089.78
2018-02-25T19:07:02.904Z,102088.84
2018-02-25T19:09:29.448Z,102089.27
2018-02-25T19:11:55.881Z,102087.02
2018-02-25T19:14:23.102Z,102094.53
2018-02-25T19:16:49.535Z,102087.92
2018-02-25T19:19:16.010Z,102081.70
2018-02-25T19:21:42.442Z,102090.06
2018-02-25T19:24:08.912Z,102097.59
2018-02-25T19:26:35.347Z,102099.33
2018-02-25T19:29:01.802Z,102100.19
2018-02-25T19:31:28.257Z,102098.86
2018-02-25T19:33:54.733Z,102093.12
2018-02-25T19:36:21.180Z,102095.78
2018-02-25T19:38:47.641Z,102101.49
2018-02-25T19:41:14.092Z,102095.73
2018-02-25T19:43:40.815Z,102101.47
2018-02-25T19:46:07.366Z,102101.49
2018-02-25T19:48:33.966Z,102101.03
2018-02-25T19:51:00.421Z,102104.12
2018-02-25T19:53:27.806Z,102104.55
2018-02-25T19:55:54.329Z,102104.98
2018-02-25T19:58:20.858Z,102105.88
2018-02-25T20:00:47.390Z,102104.09
2018-02-25T20:03:14.025Z,102101.45
2018-02-25T20:05:40.692Z,102109.84
2018-02-25T20:08:07.201Z,102111.13
2018-02-25T20:10:33.646Z,102110.27
2018-02-25T20:13:00.140Z,102111.60
2018-02-25T20:15:26.590Z,102113.36
2018-02-25T20:17:53.051Z,102112.47
2018-02-25T20:20:19.492Z,102116.45
2018-02-25T20:22:46.019Z,102112.03
2018-02-25T20:25:12.505Z,102123.51
2018-02-25T20:27:38.952Z,102122.64
2018-02-25T20:30:06.250Z,102116.10
2018-02-25T20:32:33.435Z,102115.20
2018-02-25T20:34:59.881Z,102114.30
2018-02-25T20:37:26.401Z,102110.70
2018-02-25T20:39:52.888Z,102118.66
2018-02-25T20:42:19.470Z,102116.88
2018-02-25T20:44:45.878Z,102118.15
2018-02-25T20:47:12.313Z,102120.38
2018-02-25T20:49:38.762Z,102118.16
2018-02-25T20:52:05.207Z,102115.50
2018-02-25T20:54:31.662Z,102121.67
2018-02-25T20:56:58.108Z,102119.45
2018-02-25T20:59:24.580Z,102119.45
2018-02-25T21:01:51.011Z,102119.91
2018-02-25T21:04:17.471Z,102115.94
2018-02-25T21:06:43.924Z,102123.00
2018-02-25T21:09:10.383Z,102124.30
2018-02-25T21:11:36.808Z,102122.54
2018-02-25T21:14:03.259Z,102125.19
2018-02-25T21:16:29.686Z,102126.52
2018-02-25T21:18:56.160Z,102119.89
2018-02-25T21:21:22.591Z,102131.83
2018-02-25T21:23:49.055Z,102123.88
2018-02-25T21:26:15.496Z,102124.27
2018-02-25T21:28:41.940Z,102126.06
2018-02-25T21:31:08.384Z,102127.39
2018-02-25T21:33:34.838Z,102127.83
2018-02-25T21:36:02.047Z,102132.67
2018-02-25T21:38:28.487Z,102133.53
2018-02-25T21:40:54.932Z,102132.21
2018-02-25T21:43:21.366Z,102130.45
2018-02-25T21:45:47.808Z,102130.05
2018-02-25T21:48:14.259Z,102137.95
2018-02-25T21:50:41.472Z,102129.55
2018-02-25T21:53:07.915Z,102139.27
2018-02-25T21:55:34.355Z,102132.94
2018-02-25T21:58:00.884Z,102133.77
2018-02-25T22:00:27.329Z,102133.88
2018-02-25T22:02:53.771Z,102141.45
2018-02-25T22:05:20.212Z,102141.11
2018-02-25T22:07:46.636Z,102138.36
2018-02-25T22:10:13.099Z,102137.81
2018-02-25T22:12:39.541Z,102135.17
2018-02-25T22:15:06.686Z,102133.02
2018-02-25T22:17:33.287Z,102140.97
2018-02-25T22:20:00.284Z,102137.45
2018-02-25T22:22:27.770Z,102133.06
2018-02-25T22:24:55.117Z,102131.73
2018-02-25T22:27:22.599Z,102132.63
2018-02-25T22:29:49.461Z,102132.63
2018-02-25T22:32:16.215Z,102136.17
2018-02-25T22:34:43.273Z,102137.53
2018-02-25T22:37:10.335Z,102134.01
2018-02-25T22:39:37.546Z,102132.68
2018-02-25T22:42:04.965Z,102137.55
2018-02-25T22:44:32.394Z,102143.73
2018-02-25T22:46:59.802Z,102149.03
2018-02-25T22:49:27.270Z,102140.61
2018-02-25T22:51:54.554Z,102141.48
2018-02-25T22:54:22.863Z,102134.84
2018-02-25T22:56:49.681Z,102137.04
2018-02-25T22:59:16.539Z,102142.35
2018-02-25T23:01:43.599Z,102148.06
2018-02-25T23:04:10.918Z,102141.43
2018-02-25T23:06:38.189Z,102142.75
2018-02-25T23:09:05.347Z,102141.87
2018-02-25T23:11:32.562Z,102152.91
2018-02-25T23:14:00.129Z,102150.70
2018-02-25T23:16:27.494Z,102153.75
2018-02-25T23:18:56.451Z,102151.56
2018-02-25T23:21:24.571Z,102153.78
2018-02-25T23:23:52.158Z,102150.20
2018-02-25T23:26:19.479Z,102151.53
2018-02-25T23:28:46.858Z,102155.09
2018-02-25T23:31:14.060Z,102163.05
2018-02-25T23:33:41.489Z,102156.41
2018-02-25T23:36:08.871Z,102155.09
2018-02-25T23:38:35.848Z,102155.95
2018-02-25T23:41:03.217Z,102156.41
2018-02-25T23:43:30.579Z,102155.92
2018-02-25T23:45:57.959Z,102158.12
2018-02-25T23:48:25.113Z,102155.46
2018-02-25T23:50:52.550Z,102150.62
2018-02-25T23:53:19.439Z,102159.88
2018-02-25T23:55:46.296Z,102152.81
2018-02-25T23:58:13.456Z,102157.69
